createdAt,value
2023-02-23T00:01:42.407Z,93.85
2023-02-23T00:04:08.991Z,93.80
2023-02-23T00:06:37.337Z,93.92
2023-02-23T00:09:24.185Z,93.83
2023-02-23T00:11:57.510Z,93.75
2023-02-23T00:14:28.734Z,94.02
2023-02-23T00:16:56.299Z,93.69
2023-02-23T00:19:24.783Z,93.95
2023-02-23T00:21:51.869Z,94.17
2023-02-23T00:24:19.774Z,94.09
2023-02-23T00:26:47.801Z,94.12
2023-02-23T00:29:18.276Z,94.06
2023-02-23T00:31:46.254Z,94.15
2023-02-23T00:34:15.599Z,94.04
2023-02-23T00:36:43.176Z,94.27
2023-02-23T00:39:38.348Z,94.06
2023-02-23T00:42:06.537Z,94.23
2023-02-23T00:44:36.316Z,94.13
2023-02-23T00:47:02.865Z,94.19
2023-02-23T00:49:29.268Z,94.29
2023-02-23T00:51:55.689Z,94.09
2023-02-23T00:54:22.513Z,94.02
2023-02-23T00:56:49.447Z,94.10
2023-02-23T00:59:15.894Z,94.32
2023-02-23T01:01:42.850Z,94.30
2023-02-23T01:04:10.712Z,94.26
2023-02-23T01:06:37.768Z,94.47
2023-02-23T01:09:21.734Z,94.28
2023-02-23T01:11:48.165Z,94.44
2023-02-23T01:14:14.974Z,94.37
2023-02-23T01:16:41.370Z,94.41
2023-02-23T01:19:07.808Z,94.83
2023-02-23T01:21:37.257Z,94.45
2023-02-23T01:24:04.688Z,94.41
2023-02-23T01:26:34.682Z,94.49
2023-02-23T01:29:10.990Z,94.44
2023-02-23T01:31:43.273Z,94.45
2023-02-23T01:34:11.901Z,94.56
2023-02-23T01:36:40.105Z,94.41
2023-02-23T01:39:08.991Z,94.42
2023-02-23T01:41:36.731Z,94.51
2023-02-23T01:44:06.408Z,94.61
2023-02-23T01:46:41.051Z,94.71
2023-02-23T01:49:17.953Z,94.66
2023-02-23T01:51:49.610Z,94.70
2023-02-23T01:54:23.409Z,94.80
2023-02-23T01:56:58.108Z,94.74
2023-02-23T01:59:32.694Z,94.67
2023-02-23T02:01:59.142Z,94.68
2023-02-23T02:04:26.149Z,94.75
2023-02-23T02:06:56.614Z,94.80
2023-02-23T02:09:27.832Z,94.67
2023-02-23T02:11:54.373Z,94.82
2023-02-23T02:14:31.803Z,94.56
2023-02-23T02:17:20.875Z,94.56
2023-02-23T02:19:59.310Z,94.46
2023-02-23T02:22:54.094Z,94.75
2023-02-23T02:25:49.500Z,94.57
2023-02-23T02:28:38.458Z,94.53
2023-02-23T02:31:20.980Z,94.61
2023-02-23T02:34:28.361Z,94.63
2023-02-23T02:37:04.617Z,94.61
2023-02-23T02:40:16.362Z,94.58
2023-02-23T02:42:49.336Z,94.87
2023-02-23T02:45:25.150Z,94.76
2023-02-23T02:48:21.081Z,94.72
2023-02-23T02:50:57.989Z,94.91
2023-02-23T02:53:36.498Z,94.85
2023-02-23T02:56:05.646Z,94.88
2023-02-23T02:58:33.573Z,95.10
2023-02-23T03:01:26.438Z,95.02
2023-02-23T03:04:11.574Z,95.08
2023-02-23T03:07:08.886Z,95.22
2023-02-23T03:10:11.948Z,95.28
2023-02-23T03:13:02.764Z,95.42
2023-02-23T03:16:10.688Z,95.35
2023-02-23T03:19:29.941Z,95.52
2023-02-23T03:22:23.726Z,95.36
2023-02-23T03:25:19.272Z,95.52
2023-02-23T03:28:11.358Z,95.64
2023-02-23T03:31:09.973Z,95.68
2023-02-23T03:34:13.450Z,95.79
2023-02-23T03:37:06.603Z,96.09
2023-02-23T03:39:59.839Z,96.16
2023-02-23T03:42:49.764Z,96.04
2023-02-23T03:45:39.365Z,96.37
2023-02-23T03:48:28.629Z,96.12
2023-02-23T03:51:19.151Z,96.28
2023-02-23T03:54:14.763Z,96.22
2023-02-23T03:57:04.332Z,96.32
2023-02-23T03:59:53.004Z,96.33
2023-02-23T04:02:40.936Z,96.55
2023-02-23T04:05:33.448Z,96.27
2023-02-23T04:08:24.778Z,96.37
2023-02-23T04:11:17.292Z,96.34
2023-02-23T04:13:46.290Z,96.44
2023-02-23T04:16:13.768Z,96.50
2023-02-23T04:18:40.489Z,96.56
2023-02-23T04:21:07.609Z,96.54
2023-02-23T04:23:35.863Z,96.73
2023-02-23T04:26:02.249Z,96.66
2023-02-23T04:28:29.563Z,96.70
2023-02-23T04:30:56.211Z,96.72
2023-02-23T04:33:24.971Z,96.46
2023-02-23T04:35:53.975Z,96.60
2023-02-23T04:38:21.337Z,96.58
2023-02-23T04:40:47.992Z,96.59
2023-02-23T04:43:15.089Z,96.82
2023-02-23T04:45:41.891Z,96.93
2023-02-23T04:48:08.498Z,96.62
2023-02-23T04:50:35.292Z,97.04
2023-02-23T04:53:01.780Z,96.79
2023-02-23T04:55:28.593Z,96.80
2023-02-23T04:58:00.586Z,96.84
2023-02-23T05:00:29.403Z,96.88
2023-02-23T05:02:57.044Z,97.19
2023-02-23T05:05:23.524Z,97.02
2023-02-23T05:07:50.077Z,96.98
2023-02-23T05:10:16.670Z,97.01
2023-02-23T05:12:43.192Z,97.14
2023-02-23T05:15:11.101Z,96.84
2023-02-23T05:17:41.261Z,97.15
2023-02-23T05:20:10.810Z,97.25
2023-02-23T05:22:37.899Z,97.19
2023-02-23T05:25:05.274Z,97.11
2023-02-23T05:27:32.710Z,97.25
2023-02-23T05:29:59.084Z,97.25
2023-02-23T05:32:25.638Z,97.33
2023-02-23T05:34:52.500Z,97.34
2023-02-23T05:37:19.724Z,97.35
2023-02-23T05:39:47.013Z,97.53
2023-02-23T05:42:13.645Z,97.59
2023-02-23T05:44:40.124Z,97.47
2023-02-23T05:47:06.537Z,97.33
2023-02-23T05:49:32.968Z,97.42
2023-02-23T05:51:59.378Z,97.54
2023-02-23T05:54:25.890Z,97.45
2023-02-23T05:56:52.609Z,97.56
2023-02-23T05:59:19.006Z,97.70
2023-02-23T06:01:45.494Z,97.50
2023-02-23T06:04:11.919Z,97.61
2023-02-23T06:06:38.365Z,97.57
2023-02-23T06:09:04.871Z,97.61
2023-02-23T06:11:31.791Z,97.39
2023-02-23T06:13:59.539Z,97.43
2023-02-23T06:16:27.740Z,97.52
2023-02-23T06:18:54.391Z,97.45
2023-02-23T06:21:21.370Z,97.61
2023-02-23T06:23:47.823Z,97.49
2023-02-23T06:26:14.403Z,97.57
2023-02-23T06:28:40.784Z,97.56
2023-02-23T06:31:07.265Z,97.70
2023-02-23T06:33:34.076Z,97.47
2023-02-23T06:36:00.481Z,97.50
2023-02-23T06:38:27.862Z,97.42
2023-02-23T06:40:54.325Z,97.38
2023-02-23T06:43:22.853Z,97.58
2023-02-23T06:45:50.059Z,97.46
2023-02-23T06:48:17.524Z,97.58
2023-02-23T06:50:43.905Z,97.61
2023-02-23T06:53:10.353Z,97.24
2023-02-23T06:55:36.820Z,97.42
2023-02-23T06:58:04.946Z,97.24
2023-02-23T07:00:31.363Z,97.70
2023-02-23T07:02:59.742Z,97.41
2023-02-23T07:05:26.574Z,97.49
2023-02-23T07:07:53.013Z,97.32
2023-02-23T07:10:19.806Z,97.31
2023-02-23T07:12:46.965Z,97.31
2023-02-23T07:15:17.396Z,97.46
2023-02-23T07:17:45.490Z,97.45
2023-02-23T07:20:12.623Z,97.48
2023-02-23T07:22:39.939Z,97.24
2023-02-23T07:25:07.209Z,97.45
2023-02-23T07:27:33.551Z,97.24
2023-02-23T07:30:00.050Z,97.39
2023-02-23T07:32:26.569Z,97.51
2023-02-23T07:34:53.948Z,97.32
2023-02-23T07:37:21.461Z,97.42
2023-02-23T07:39:47.953Z,97.45
2023-02-23T07:42:14.459Z,97.18
2023-02-23T07:44:41.018Z,97.46
2023-02-23T07:47:07.484Z,97.30
2023-02-23T07:49:34.513Z,97.53
2023-02-23T07:52:00.976Z,97.41
2023-02-23T07:54:27.592Z,97.33
2023-02-23T07:56:53.995Z,97.33
2023-02-23T07:59:23.905Z,97.19
2023-02-23T08:01:51.740Z,97.28
2023-02-23T08:04:18.741Z,97.35
2023-02-23T08:06:45.240Z,97.43
2023-02-23T08:09:12.392Z,97.54
2023-02-23T08:11:39.049Z,97.33
2023-02-23T08:14:05.986Z,97.43
2023-02-23T08:16:33.488Z,97.22
2023-02-23T08:19:01.381Z,97.36
2023-02-23T08:21:29.426Z,97.39
2023-02-23T08:23:57.268Z,97.54
2023-02-23T08:26:25.474Z,97.31
2023-02-23T08:28:53.474Z,97.42
2023-02-23T08:31:23.724Z,97.36
2023-02-23T08:33:51.564Z,97.27
2023-02-23T08:36:18.406Z,97.25
2023-02-23T08:38:44.869Z,97.06
2023-02-23T08:41:11.321Z,97.17
2023-02-23T08:43:39.357Z,97.10
2023-02-23T08:46:07.282Z,97.00
2023-02-23T08:48:34.791Z,97.03
2023-02-23T08:51:01.687Z,96.90
2023-02-23T08:53:29.931Z,96.95
2023-02-23T08:56:01.763Z,96.74
2023-02-23T08:58:31.234Z,96.88
2023-02-23T09:00:58.315Z,96.87
2023-02-23T09:03:31.522Z,96.80
2023-02-23T09:05:59.547Z,96.69
2023-02-23T09:08:26.059Z,96.63
2023-02-23T09:10:53.620Z,96.42
2023-02-23T09:13:20.032Z,96.39
2023-02-23T09:15:46.514Z,96.35
2023-02-23T09:18:14.985Z,96.24
2023-02-23T09:20:43.134Z,96.29
2023-02-23T09:23:10.830Z,96.26
2023-02-23T09:25:45.167Z,96.20
2023-02-23T09:28:16.654Z,96.20
2023-02-23T09:30:44.764Z,96.36
2023-02-23T09:33:11.456Z,96.04
2023-02-23T09:35:38.039Z,96.11
2023-02-23T09:38:06.766Z,95.83
2023-02-23T09:40:55.761Z,95.79
2023-02-23T09:43:45.002Z,95.70
2023-02-23T09:46:28.609Z,95.74
2023-02-23T09:48:59.398Z,95.75
2023-02-23T09:51:26.554Z,95.58
2023-02-23T09:54:02.748Z,95.64
2023-02-23T09:56:38.542Z,95.67
2023-02-23T09:59:07.336Z,95.49
2023-02-23T10:01:48.687Z,95.63
2023-02-23T10:04:29.103Z,95.20
2023-02-23T10:07:10.802Z,95.02
2023-02-23T10:10:04.651Z,94.77
2023-02-23T10:12:46.238Z,94.72
2023-02-23T10:15:56.085Z,94.44
2023-02-23T10:18:45.253Z,94.63
2023-02-23T10:21:35.195Z,94.50
2023-02-23T10:24:07.830Z,94.48
2023-02-23T10:26:44.036Z,94.69
2023-02-23T10:29:27.009Z,94.52
2023-02-23T10:32:24.642Z,94.21
2023-02-23T10:34:54.315Z,94.31
2023-02-23T10:37:20.969Z,94.25
2023-02-23T10:39:49.923Z,94.21
2023-02-23T10:42:28.948Z,94.04
2023-02-23T10:44:56.916Z,93.84
2023-02-23T10:47:27.732Z,93.74
2023-02-23T10:49:56.741Z,93.27
2023-02-23T10:52:41.630Z,92.98
2023-02-23T10:55:22.713Z,92.93
2023-02-23T10:57:54.024Z,92.60
2023-02-23T11:00:21.421Z,92.50
2023-02-23T11:02:48.258Z,92.59
2023-02-23T11:05:43.344Z,92.34
2023-02-23T11:08:10.970Z,92.29
2023-02-23T11:10:37.802Z,92.41
2023-02-23T11:13:04.230Z,92.20
2023-02-23T11:15:49.374Z,92.03
2023-02-23T11:18:23.282Z,92.32
2023-02-23T11:20:51.414Z,92.00
2023-02-23T11:23:30.509Z,91.70
2023-02-23T11:26:02.438Z,91.61
2023-02-23T11:28:37.706Z,91.70
2023-02-23T11:31:29.261Z,91.79
2023-02-23T11:33:56.305Z,91.92
2023-02-23T11:36:22.668Z,91.71
2023-02-23T11:39:05.739Z,91.30
2023-02-23T11:41:35.165Z,91.18
2023-02-23T11:44:04.931Z,90.99
2023-02-23T11:46:37.949Z,90.83
2023-02-23T11:49:21.816Z,90.72
2023-02-23T11:51:50.586Z,90.47
2023-02-23T11:54:27.262Z,90.31
2023-02-23T11:56:55.350Z,90.23
2023-02-23T11:59:29.865Z,90.14
2023-02-23T12:02:25.459Z,90.73
2023-02-23T12:05:17.194Z,90.92
2023-02-23T12:07:58.611Z,90.89
2023-02-23T12:10:39.180Z,90.75
2023-02-23T12:13:27.685Z,90.82
2023-02-23T12:16:21.456Z,90.50
2023-02-23T12:18:59.316Z,90.47
2023-02-23T12:21:38.186Z,90.50
2023-02-23T12:24:25.480Z,90.45
2023-02-23T12:26:58.924Z,90.30
2023-02-23T12:29:52.766Z,90.36
2023-02-23T12:32:25.210Z,89.90
2023-02-23T12:35:01.501Z,90.01
2023-02-23T12:37:50.173Z,90.10
2023-02-23T12:40:29.738Z,89.83
2023-02-23T12:43:05.771Z,89.75
2023-02-23T12:45:38.478Z,89.63
2023-02-23T12:48:42.611Z,89.65
2023-02-23T12:51:22.518Z,88.91
2023-02-23T12:53:49.014Z,89.01
2023-02-23T12:56:36.587Z,88.79
2023-02-23T12:59:06.850Z,88.53
2023-02-23T13:02:00.848Z,88.37
2023-02-23T13:05:05.150Z,88.15
2023-02-23T13:07:34.779Z,87.83
2023-02-23T13:10:18.890Z,87.39
2023-02-23T13:13:06.583Z,87.90
2023-02-23T13:16:10.057Z,88.16
2023-02-23T13:19:05.093Z,87.97
2023-02-23T13:21:44.718Z,87.71
2023-02-23T13:24:20.913Z,87.80
2023-02-23T13:27:03.368Z,87.57
2023-02-23T13:29:35.727Z,86.74
2023-02-23T13:32:05.123Z,87.04
2023-02-23T13:34:36.403Z,86.50
2023-02-23T13:37:06.526Z,86.50
2023-02-23T13:39:35.855Z,85.88
2023-02-23T13:42:19.323Z,85.95
2023-02-23T13:45:06.835Z,85.41
2023-02-23T13:47:45.487Z,85.40
2023-02-23T13:50:23.369Z,85.13
2023-02-23T13:52:55.679Z,85.23
2023-02-23T13:55:34.671Z,85.21
2023-02-23T13:58:16.560Z,85.28
2023-02-23T14:00:43.715Z,85.65
2023-02-23T14:03:23.577Z,86.09
2023-02-23T14:05:56.671Z,86.37
2023-02-23T14:08:32.202Z,86.93
2023-02-23T14:10:58.958Z,86.93
2023-02-23T14:13:35.138Z,87.26
2023-02-23T14:16:12.583Z,87.44
2023-02-23T14:18:54.799Z,87.39
2023-02-23T14:21:33.521Z,87.54
2023-02-23T14:24:23.389Z,87.39
2023-02-23T14:27:08.820Z,87.08
2023-02-23T14:30:10.196Z,86.77
2023-02-23T14:32:45.656Z,86.83
2023-02-23T14:35:33.963Z,86.62
2023-02-23T14:38:09.892Z,86.90
2023-02-23T14:40:42.570Z,86.90
2023-02-23T14:43:32.550Z,86.42
2023-02-23T14:46:05.992Z,86.23
2023-02-23T14:48:36.570Z,86.06
2023-02-23T14:52:01.664Z,86.25
2023-02-23T14:54:39.555Z,86.20
2023-02-23T14:57:22.330Z,86.19
2023-02-23T15:00:00.484Z,86.32
2023-02-23T15:02:29.454Z,86.17
2023-02-23T15:04:56.369Z,86.37
2023-02-23T15:07:38.383Z,86.04
2023-02-23T15:10:18.449Z,86.08
2023-02-23T15:12:47.340Z,86.69
2023-02-23T15:15:19.623Z,86.64
2023-02-23T15:17:53.061Z,86.78
2023-02-23T15:20:28.700Z,87.01
2023-02-23T15:22:57.542Z,87.60
2023-02-23T15:25:33.771Z,88.26
2023-02-23T15:28:10.118Z,88.81
2023-02-23T15:30:47.087Z,89.17
2023-02-23T15:33:16.356Z,89.55
2023-02-23T15:35:48.569Z,90.01
2023-02-23T15:38:46.206Z,90.29
2023-02-23T15:41:36.991Z,90.39
2023-02-23T15:44:32.199Z,90.63
2023-02-23T15:47:10.298Z,90.86
2023-02-23T15:49:42.856Z,90.76
2023-02-23T15:52:16.499Z,91.18
2023-02-23T15:54:45.764Z,91.22
2023-02-23T15:57:22.827Z,91.23
2023-02-23T15:59:50.138Z,91.23
2023-02-23T16:02:19.706Z,91.60
2023-02-23T16:04:52.706Z,91.73
2023-02-23T16:07:20.789Z,92.05
2023-02-23T16:09:52.971Z,92.35
2023-02-23T16:12:23.514Z,92.62
2023-02-23T16:14:56.358Z,92.89
2023-02-23T16:17:34.171Z,93.11
2023-02-23T16:20:10.685Z,93.55
2023-02-23T16:22:39.931Z,93.48
2023-02-23T16:25:12.416Z,93.59
2023-02-23T16:27:39.149Z,93.44
2023-02-23T16:30:23.326Z,93.59
2023-02-23T16:33:13.549Z,93.34
2023-02-23T16:35:45.425Z,93.17
2023-02-23T16:38:25.519Z,92.95
2023-02-23T16:40:52.634Z,92.79
2023-02-23T16:43:19.457Z,92.29
2023-02-23T16:45:46.415Z,92.56
2023-02-23T16:48:18.077Z,92.41
2023-02-23T16:50:45.747Z,92.10
2023-02-23T16:53:13.544Z,92.33
2023-02-23T16:55:51.973Z,92.23
2023-02-23T16:58:21.677Z,92.38
2023-02-23T17:00:49.208Z,92.04
2023-02-23T17:03:24.275Z,92.26
2023-02-23T17:05:51.628Z,92.67
2023-02-23T17:08:18.510Z,92.86
2023-02-23T17:10:47.497Z,92.74
2023-02-23T17:13:25.495Z,92.93
2023-02-23T17:15:56.293Z,93.02
2023-02-23T17:20:52.582Z,92.45
2023-02-23T17:23:21.081Z,92.36
2023-02-23T17:25:47.588Z,91.99
2023-02-23T17:28:14.445Z,92.06
2023-02-23T17:30:42.595Z,91.72
2023-02-23T17:33:09.943Z,91.51
2023-02-23T17:35:37.386Z,91.45
2023-02-23T17:38:05.493Z,91.90
2023-02-23T17:40:36.328Z,91.97
2023-02-23T17:43:07.409Z,91.90
2023-02-23T17:45:33.940Z,91.55
2023-02-23T17:48:00.382Z,91.66
2023-02-23T17:50:27.606Z,91.71
2023-02-23T17:52:54.467Z,91.62
2023-02-23T17:55:21.766Z,91.49
2023-02-23T17:57:48.509Z,91.72
2023-02-23T18:00:17.017Z,91.21
2023-02-23T18:02:45.163Z,91.22
2023-02-23T18:05:13.641Z,90.93
2023-02-23T18:07:40.257Z,90.75
2023-02-23T18:10:07.154Z,90.74
2023-02-23T18:12:33.965Z,90.38
2023-02-23T18:15:00.348Z,90.40
2023-02-23T18:17:26.927Z,90.26
2023-02-23T18:19:53.371Z,90.04
2023-02-23T18:22:19.896Z,90.11
2023-02-23T18:24:46.370Z,90.07
2023-02-23T18:27:12.813Z,89.77
2023-02-23T18:29:39.454Z,89.84
2023-02-23T18:32:07.711Z,89.89
2023-02-23T18:34:35.337Z,89.87
2023-02-23T18:37:03.542Z,89.55
2023-02-23T18:39:31.922Z,89.37
2023-02-23T18:42:00.511Z,89.10
2023-02-23T18:44:27.295Z,88.85
2023-02-23T18:46:54.818Z,88.80
2023-02-23T18:49:23.737Z,88.78
2023-02-23T18:51:50.653Z,88.37
2023-02-23T18:54:18.702Z,88.29
2023-02-23T18:56:47.416Z,88.02
2023-02-23T18:59:14.816Z,88.10
2023-02-23T19:01:42.585Z,87.77
2023-02-23T19:04:10.493Z,87.04
2023-02-23T19:06:40.348Z,86.11
2023-02-23T19:09:10.363Z,84.96
2023-02-23T19:11:37.613Z,84.67
2023-02-23T19:14:07.324Z,84.46
2023-02-23T19:16:35.011Z,84.76
2023-02-23T19:19:04.026Z,84.56
2023-02-23T19:21:30.517Z,84.52
2023-02-23T19:23:57.830Z,84.30
2023-02-23T19:26:25.844Z,84.61
2023-02-23T19:28:55.354Z,84.79
2023-02-23T19:31:24.602Z,84.62
2023-02-23T19:33:52.581Z,84.66
2023-02-23T19:36:21.798Z,84.72
2023-02-23T19:38:48.865Z,84.48
2023-02-23T19:41:21.093Z,84.79
2023-02-23T19:43:47.843Z,85.02
2023-02-23T19:46:17.242Z,85.37
2023-02-23T19:48:48.496Z,85.67
2023-02-23T19:51:14.942Z,86.31
2023-02-23T19:53:41.333Z,86.56
2023-02-23T19:56:12.333Z,87.03
2023-02-23T19:58:39.066Z,87.24
2023-02-23T20:01:07.840Z,87.51
2023-02-23T20:03:35.621Z,87.77
2023-02-23T20:06:05.548Z,88.10
2023-02-23T20:08:32.581Z,88.11
2023-02-23T20:10:59.817Z,88.51
2023-02-23T20:13:26.412Z,88.41
2023-02-23T20:16:13.614Z,88.17
2023-02-23T20:18:41.467Z,88.23
2023-02-23T20:21:20.034Z,88.52
2023-02-23T20:23:47.408Z,88.39
2023-02-23T20:26:19.442Z,88.46
2023-02-23T20:28:46.507Z,88.18
2023-02-23T20:31:28.039Z,88.41
2023-02-23T20:33:56.783Z,88.74
2023-02-23T20:36:24.260Z,88.87
2023-02-23T20:38:51.971Z,89.06
2023-02-23T20:41:20.067Z,89.12
2023-02-23T20:43:46.752Z,89.31
2023-02-23T20:46:14.892Z,89.23
2023-02-23T20:48:42.451Z,89.43
2023-02-23T20:51:12.897Z,89.43
2023-02-23T20:53:40.415Z,89.59
2023-02-23T20:56:09.480Z,89.75
2023-02-23T20:58:36.298Z,89.81
2023-02-23T21:01:06.318Z,89.71
2023-02-23T21:03:34.415Z,90.00
2023-02-23T21:06:00.967Z,90.03
2023-02-23T21:08:28.908Z,90.07
2023-02-23T21:10:55.626Z,90.12
2023-02-23T21:13:23.078Z,90.06
2023-02-23T21:15:58.594Z,90.28
2023-02-23T21:18:25.393Z,90.34
2023-02-23T21:20:51.936Z,90.59
2023-02-23T21:23:20.379Z,90.38
2023-02-23T21:25:47.652Z,90.38
2023-02-23T21:28:14.350Z,90.79
2023-02-23T21:30:40.793Z,90.78
2023-02-23T21:33:07.496Z,90.92
2023-02-23T21:35:35.212Z,90.83
2023-02-23T21:38:01.809Z,90.55
2023-02-23T21:40:28.310Z,90.92
2023-02-23T21:42:54.855Z,90.97
2023-02-23T21:45:21.295Z,90.94
2023-02-23T21:47:48.544Z,91.12
2023-02-23T21:50:18.230Z,91.09
2023-02-23T21:52:46.940Z,91.22
2023-02-23T21:55:21.295Z,91.27
2023-02-23T21:57:48.272Z,91.60
2023-02-23T22:00:16.243Z,91.29
2023-02-23T22:02:46.211Z,91.38
2023-02-23T22:05:14.526Z,91.66
2023-02-23T22:07:41.572Z,91.47
2023-02-23T22:10:08.379Z,91.56
2023-02-23T22:12:34.893Z,91.60
2023-02-23T22:15:10.392Z,91.54
2023-02-23T22:17:38.605Z,91.59
2023-02-23T22:20:07.408Z,91.47
2023-02-23T22:22:36.182Z,91.70
2023-02-23T22:25:07.460Z,91.58
2023-02-23T22:27:34.049Z,91.62
2023-02-23T22:30:01.534Z,91.74
2023-02-23T22:32:32.800Z,91.66
2023-02-23T22:35:00.332Z,91.72
2023-02-23T22:37:29.986Z,91.79
2023-02-23T22:40:16.800Z,91.92
2023-02-23T22:42:48.332Z,91.78
2023-02-23T22:45:16.147Z,91.78
2023-02-23T22:47:42.979Z,91.94
2023-02-23T22:50:12.148Z,91.93
2023-02-23T22:52:38.977Z,91.85
2023-02-23T22:55:05.831Z,91.99
2023-02-23T22:57:32.349Z,92.22
2023-02-23T23:00:10.227Z,91.68
2023-02-23T23:02:36.849Z,91.87
2023-02-23T23:05:03.762Z,92.12
2023-02-23T23:07:31.454Z,92.20
2023-02-23T23:09:58.770Z,92.10
2023-02-23T23:12:27.909Z,91.99
2023-02-23T23:14:55.983Z,92.35
2023-02-23T23:17:22.593Z,92.29
2023-02-23T23:19:50.039Z,92.28
2023-02-23T23:22:17.411Z,92.41
2023-02-23T23:24:46.210Z,92.48
2023-02-23T23:27:14.735Z,92.30
2023-02-23T23:29:45.702Z,92.28
2023-02-23T23:32:17.591Z,92.31
2023-02-23T23:34:49.006Z,92.41
2023-02-23T23:37:17.763Z,92.53
2023-02-23T23:39:45.275Z,92.50
2023-02-23T23:42:12.214Z,92.55
2023-02-23T23:44:39.393Z,92.72
2023-02-23T23:47:05.994Z,92.82
2023-02-23T23:49:38.669Z,92.82
2023-02-23T23:52:05.856Z,93.02
2023-02-23T23:54:38.708Z,92.88
2023-02-23T23:57:06.207Z,93.08
2023-02-23T23:59:34.493Z,93.07
